Weather at Split Airport

Public forecast

Using degrees Celsius for public forecast. Weather courtesy of forecast.io.

Current aviation weather report (METAR) for Split Airport

2022/12/05 15:00 (retrieved 36 minutes ago)

LDSP 051500Z 12005KT 100V160 9999 FEW022 SCT030 16/13 Q1020 NOSIG

Aviation forecast (TAF) for Split Airport

2022/12/05 12:27 (retrieved 3 hours ago)

TAF LDSP 051125Z 0512/0612 11010KT 9999 SCT030 TX18/0512Z TN12/0605Z PROB30 TEMPO 0512/0603 SHRA FEW020TCU BKN030 TEMPO 0603/0612 RA PROB40 TEMPO 0603/0612 3000 TSRA FEW020CB BKN030 BECMG 0606/0608 05006KT